sensor_id;sensor_type;location;lat;lon;timestamp;P1;durP1;ratioP1;P2;durP2;ratioP2
49241;SDS011;35079;52.704;13.814;2023-08-01T00:00:40;9.65;;;4.40;;
49241;SDS011;35079;52.704;13.814;2023-08-01T00:03:06;8.75;;;4.60;;
49241;SDS011;35079;52.704;13.814;2023-08-01T00:05:32;7.75;;;4.40;;
49241;SDS011;35079;52.704;13.814;2023-08-01T00:07:57;9.05;;;4.97;;
49241;SDS011;35079;52.704;13.814;2023-08-01T00:10:26;10.23;;;4.82;;
49241;SDS011;35079;52.704;13.814;2023-08-01T00:12:54;11.63;;;5.00;;
49241;SDS011;35079;52.704;13.814;2023-08-01T00:15:27;11.25;;;4.95;;
49241;SDS011;35079;52.704;13.814;2023-08-01T00:20:22;7.57;;;4.22;;
49241;SDS011;35079;52.704;13.814;2023-08-01T00:22:48;12.45;;;5.13;;
49241;SDS011;35079;52.704;13.814;2023-08-01T00:25:14;8.70;;;4.50;;
49241;SDS011;35079;52.704;13.814;2023-08-01T00:27:43;10.13;;;5.03;;
49241;SDS011;35079;52.704;13.814;2023-08-01T00:30:14;8.65;;;4.50;;
49241;SDS011;35079;52.704;13.814;2023-08-01T00:32:39;8.23;;;4.80;;
49241;SDS011;35079;52.704;13.814;2023-08-01T00:35:05;12.85;;;4.80;;
49241;SDS011;35079;52.704;13.814;2023-08-01T00:37:31;9.50;;;4.97;;
49241;SDS011;35079;52.704;13.814;2023-08-01T00:39:57;11.10;;;4.72;;
49241;SDS011;35079;52.704;13.814;2023-08-01T00:42:23;9.90;;;4.57;;
49241;SDS011;35079;52.704;13.814;2023-08-01T00:44:49;11.35;;;4.60;;
49241;SDS011;35079;52.704;13.814;2023-08-01T00:47:16;9.48;;;5.10;;
49241;SDS011;35079;52.704;13.814;2023-08-01T00:49:41;7.80;;;4.40;;
49241;SDS011;35079;52.704;13.814;2023-08-01T00:52:08;8.18;;;4.60;;
49241;SDS011;35079;52.704;13.814;2023-08-01T00:54:35;11.57;;;5.18;;
49241;SDS011;35079;52.704;13.814;2023-08-01T00:57:05;8.90;;;5.15;;
49241;SDS011;35079;52.704;13.814;2023-08-01T00:59:31;12.40;;;4.75;;
49241;SDS011;35079;52.704;13.814;2023-08-01T01:01:57;7.63;;;4.68;;
49241;SDS011;35079;52.704;13.814;2023-08-01T01:04:24;16.05;;;5.40;;
49241;SDS011;35079;52.704;13.814;2023-08-01T01:09:28;10.68;;;5.10;;
49241;SDS011;35079;52.704;13.814;2023-08-01T01:11:56;8.82;;;5.07;;
49241;SDS011;35079;52.704;13.814;2023-08-01T01:14:23;10.02;;;4.80;;
49241;SDS011;35079;52.704;13.814;2023-08-01T01:16:53;8.45;;;4.55;;
49241;SDS011;35079;52.704;13.814;2023-08-01T01:19:19;9.88;;;4.32;;
49241;SDS011;35079;52.704;13.814;2023-08-01T01:21:45;10.77;;;4.38;;
49241;SDS011;35079;52.704;13.814;2023-08-01T01:24:12;9.80;;;4.47;;
49241;SDS011;35079;52.704;13.814;2023-08-01T01:26:40;7.22;;;4.20;;
49241;SDS011;35079;52.704;13.814;2023-08-01T01:29:07;10.02;;;4.05;;
49241;SDS011;35079;52.704;13.814;2023-08-01T01:31:35;9.55;;;4.10;;
49241;SDS011;35079;52.704;13.814;2023-08-01T01:34:02;7.43;;;3.90;;
49241;SDS011;35079;52.704;13.814;2023-08-01T01:36:28;7.40;;;3.83;;
49241;SDS011;35079;52.704;13.814;2023-08-01T01:38:54;6.90;;;4.25;;
49241;SDS011;35079;52.704;13.814;2023-08-01T01:41:20;10.07;;;4.28;;
49241;SDS011;35079;52.704;13.814;2023-08-01T01:43:46;11.10;;;4.10;;
49241;SDS011;35079;52.704;13.814;2023-08-01T01:46:11;7.80;;;4.07;;
49241;SDS011;35079;52.704;13.814;2023-08-01T01:48:37;6.60;;;4.20;;
49241;SDS011;35079;52.704;13.814;2023-08-01T01:51:02;7.30;;;3.80;;
49241;SDS011;35079;52.704;13.814;2023-08-01T01:53:28;8.23;;;4.10;;
49241;SDS011;35079;52.704;13.814;2023-08-01T01:55:53;8.35;;;4.10;;
49241;SDS011;35079;52.704;13.814;2023-08-01T01:58:19;7.93;;;3.83;;
49241;SDS011;35079;52.704;13.814;2023-08-01T02:00:45;4.97;;;3.65;;
49241;SDS011;35079;52.704;13.814;2023-08-01T02:03:10;10.50;;;4.15;;
49241;SDS011;35079;52.704;13.814;2023-08-01T02:05:39;6.43;;;3.83;;
49241;SDS011;35079;52.704;13.814;2023-08-01T02:08:05;6.95;;;4.00;;
49241;SDS011;35079;52.704;13.814;2023-08-01T02:10:31;8.73;;;4.10;;
49241;SDS011;35079;52.704;13.814;2023-08-01T02:12:57;6.82;;;4.63;;
49241;SDS011;35079;52.704;13.814;2023-08-01T02:15:23;7.45;;;4.13;;
49241;SDS011;35079;52.704;13.814;2023-08-01T02:17:49;7.45;;;3.97;;
49241;SDS011;35079;52.704;13.814;2023-08-01T02:20:15;6.82;;;3.70;;
49241;SDS011;35079;52.704;13.814;2023-08-01T02:22:42;8.95;;;3.95;;
49241;SDS011;35079;52.704;13.814;2023-08-01T02:25:08;8.07;;;4.28;;
49241;SDS011;35079;52.704;13.814;2023-08-01T02:27:37;7.38;;;4.45;;
49241;SDS011;35079;52.704;13.814;2023-08-01T02:30:03;6.65;;;4.10;;
49241;SDS011;35079;52.704;13.814;2023-08-01T02:32:30;6.45;;;3.70;;
49241;SDS011;35079;52.704;13.814;2023-08-01T02:34:56;9.98;;;4.07;;
49241;SDS011;35079;52.704;13.814;2023-08-01T02:37:21;9.93;;;4.82;;
49241;SDS011;35079;52.704;13.814;2023-08-01T02:39:47;7.15;;;4.10;;
49241;SDS011;35079;52.704;13.814;2023-08-01T02:42:13;7.60;;;4.10;;
49241;SDS011;35079;52.704;13.814;2023-08-01T02:44:38;7.47;;;4.43;;
49241;SDS011;35079;52.704;13.814;2023-08-01T02:47:04;9.68;;;4.32;;
49241;SDS011;35079;52.704;13.814;2023-08-01T02:49:31;6.53;;;3.95;;
49241;SDS011;35079;52.704;13.814;2023-08-01T02:51:57;8.15;;;4.60;;
49241;SDS011;35079;52.704;13.814;2023-08-01T02:54:23;7.10;;;4.10;;
49241;SDS011;35079;52.704;13.814;2023-08-01T02:56:49;7.50;;;3.92;;
49241;SDS011;35079;52.704;13.814;2023-08-01T02:59:16;10.02;;;4.22;;
49241;SDS011;35079;52.704;13.814;2023-08-01T03:01:43;6.43;;;4.10;;
49241;SDS011;35079;52.704;13.814;2023-08-01T03:04:09;6.07;;;4.00;;
49241;SDS011;35079;52.704;13.814;2023-08-01T03:06:36;8.18;;;4.03;;
49241;SDS011;35079;52.704;13.814;2023-08-01T03:09:03;7.40;;;4.22;;
49241;SDS011;35079;52.704;13.814;2023-08-01T03:11:32;5.82;;;4.38;;
49241;SDS011;35079;52.704;13.814;2023-08-01T03:14:00;9.75;;;4.78;;
49241;SDS011;35079;52.704;13.814;2023-08-01T03:16:26;7.93;;;4.53;;
49241;SDS011;35079;52.704;13.814;2023-08-01T03:18:51;7.32;;;4.47;;
49241;SDS011;35079;52.704;13.814;2023-08-01T03:21:17;6.75;;;4.60;;
49241;SDS011;35079;52.704;13.814;2023-08-01T03:23:43;8.98;;;4.10;;
49241;SDS011;35079;52.704;13.814;2023-08-01T03:26:09;11.18;;;4.65;;
49241;SDS011;35079;52.704;13.814;2023-08-01T03:28:34;11.98;;;4.53;;
49241;SDS011;35079;52.704;13.814;2023-08-01T03:31:01;7.75;;;4.22;;
49241;SDS011;35079;52.704;13.814;2023-08-01T03:33:27;10.15;;;4.80;;
49241;SDS011;35079;52.704;13.814;2023-08-01T03:35:53;7.07;;;4.38;;
49241;SDS011;35079;52.704;13.814;2023-08-01T03:38:18;7.68;;;4.25;;
49241;SDS011;35079;52.704;13.814;2023-08-01T03:40:44;8.32;;;4.80;;
49241;SDS011;35079;52.704;13.814;2023-08-01T03:43:10;9.07;;;4.50;;
49241;SDS011;35079;52.704;13.814;2023-08-01T03:45:35;7.50;;;4.47;;
49241;SDS011;35079;52.704;13.814;2023-08-01T03:48:01;9.68;;;4.50;;
49241;SDS011;35079;52.704;13.814;2023-08-01T03:50:27;6.35;;;4.82;;
49241;SDS011;35079;52.704;13.814;2023-08-01T03:52:52;7.20;;;4.18;;
49241;SDS011;35079;52.704;13.814;2023-08-01T03:55:18;6.35;;;4.35;;
49241;SDS011;35079;52.704;13.814;2023-08-01T03:57:44;7.97;;;4.40;;
49241;SDS011;35079;52.704;13.814;2023-08-01T04:00:09;7.30;;;4.55;;
49241;SDS011;35079;52.704;13.814;2023-08-01T04:02:41;8.18;;;4.13;;
49241;SDS011;35079;52.704;13.814;2023-08-01T04:05:07;9.70;;;4.50;;
49241;SDS011;35079;52.704;13.814;2023-08-01T04:07:34;9.10;;;5.15;;
49241;SDS011;35079;52.704;13.814;2023-08-01T04:10:01;9.88;;;4.63;;
49241;SDS011;35079;52.704;13.814;2023-08-01T04:12:27;9.35;;;4.28;;
49241;SDS011;35079;52.704;13.814;2023-08-01T04:14:53;7.43;;;4.47;;
49241;SDS011;35079;52.704;13.814;2023-08-01T04:17:19;8.25;;;4.50;;
49241;SDS011;35079;52.704;13.814;2023-08-01T04:19:44;7.43;;;4.20;;
49241;SDS011;35079;52.704;13.814;2023-08-01T04:22:10;9.38;;;4.65;;
49241;SDS011;35079;52.704;13.814;2023-08-01T04:24:36;5.57;;;4.00;;
49241;SDS011;35079;52.704;13.814;2023-08-01T04:27:01;12.90;;;4.60;;
49241;SDS011;35079;52.704;13.814;2023-08-01T04:29:27;7.20;;;4.07;;
49241;SDS011;35079;52.704;13.814;2023-08-01T04:31:53;6.50;;;4.35;;
49241;SDS011;35079;52.704;13.814;2023-08-01T04:34:19;6.32;;;4.25;;
49241;SDS011;35079;52.704;13.814;2023-08-01T04:36:44;7.22;;;4.20;;
49241;SDS011;35079;52.704;13.814;2023-08-01T04:39:12;7.13;;;4.15;;
49241;SDS011;35079;52.704;13.814;2023-08-01T04:41:38;9.23;;;4.35;;
49241;SDS011;35079;52.704;13.814;2023-08-01T04:44:04;7.25;;;4.18;;
49241;SDS011;35079;52.704;13.814;2023-08-01T04:46:31;7.30;;;3.97;;
49241;SDS011;35079;52.704;13.814;2023-08-01T04:48:57;5.95;;;4.10;;
49241;SDS011;35079;52.704;13.814;2023-08-01T04:51:23;7.15;;;4.10;;
49241;SDS011;35079;52.704;13.814;2023-08-01T04:53:49;7.57;;;3.90;;
49241;SDS011;35079;52.704;13.814;2023-08-01T04:56:15;7.15;;;4.32;;
49241;SDS011;35079;52.704;13.814;2023-08-01T04:58:41;7.90;;;4.03;;
49241;SDS011;35079;52.704;13.814;2023-08-01T05:01:06;8.68;;;4.03;;
49241;SDS011;35079;52.704;13.814;2023-08-01T05:03:32;6.10;;;4.00;;
49241;SDS011;35079;52.704;13.814;2023-08-01T05:05:58;8.13;;;4.18;;
49241;SDS011;35079;52.704;13.814;2023-08-01T05:08:23;6.22;;;3.47;;
49241;SDS011;35079;52.704;13.814;2023-08-01T05:10:49;7.55;;;3.58;;
49241;SDS011;35079;52.704;13.814;2023-08-01T05:13:15;9.35;;;4.18;;
49241;SDS011;35079;52.704;13.814;2023-08-01T05:15:43;8.07;;;3.92;;
49241;SDS011;35079;52.704;13.814;2023-08-01T05:18:12;7.47;;;3.85;;
49241;SDS011;35079;52.704;13.814;2023-08-01T05:20:41;5.82;;;3.70;;
49241;SDS011;35079;52.704;13.814;2023-08-01T05:23:07;5.88;;;3.70;;
49241;SDS011;35079;52.704;13.814;2023-08-01T05:25:33;7.28;;;3.80;;
49241;SDS011;35079;52.704;13.814;2023-08-01T05:27:59;6.43;;;4.15;;
49241;SDS011;35079;52.704;13.814;2023-08-01T05:30:25;8.93;;;3.78;;
49241;SDS011;35079;52.704;13.814;2023-08-01T05:32:51;8.60;;;3.70;;
49241;SDS011;35079;52.704;13.814;2023-08-01T05:35:19;7.00;;;3.90;;
49241;SDS011;35079;52.704;13.814;2023-08-01T05:37:45;6.10;;;3.35;;
49241;SDS011;35079;52.704;13.814;2023-08-01T05:40:11;7.25;;;3.88;;
49241;SDS011;35079;52.704;13.814;2023-08-01T05:42:37;7.45;;;3.72;;
49241;SDS011;35079;52.704;13.814;2023-08-01T05:45:02;8.18;;;3.60;;
49241;SDS011;35079;52.704;13.814;2023-08-01T05:47:29;6.35;;;3.70;;
49241;SDS011;35079;52.704;13.814;2023-08-01T05:49:55;5.25;;;3.10;;
49241;SDS011;35079;52.704;13.814;2023-08-01T05:52:21;7.13;;;3.60;;
49241;SDS011;35079;52.704;13.814;2023-08-01T05:54:47;5.75;;;3.42;;
49241;SDS011;35079;52.704;13.814;2023-08-01T05:57:13;6.80;;;3.20;;
49241;SDS011;35079;52.704;13.814;2023-08-01T05:59:41;4.78;;;3.58;;
49241;SDS011;35079;52.704;13.814;2023-08-01T06:02:07;5.75;;;3.25;;
49241;SDS011;35079;52.704;13.814;2023-08-01T06:04:38;4.68;;;3.33;;
49241;SDS011;35079;52.704;13.814;2023-08-01T06:07:08;6.88;;;3.75;;
49241;SDS011;35079;52.704;13.814;2023-08-01T06:09:35;5.50;;;3.50;;
49241;SDS011;35079;52.704;13.814;2023-08-01T06:12:01;5.03;;;3.65;;
49241;SDS011;35079;52.704;13.814;2023-08-01T06:14:29;6.85;;;3.45;;
49241;SDS011;35079;52.704;13.814;2023-08-01T06:16:56;5.18;;;3.40;;
49241;SDS011;35079;52.704;13.814;2023-08-01T06:19:21;4.80;;;3.33;;
49241;SDS011;35079;52.704;13.814;2023-08-01T06:21:47;4.47;;;3.53;;
49241;SDS011;35079;52.704;13.814;2023-08-01T06:24:13;7.50;;;3.47;;
49241;SDS011;35079;52.704;13.814;2023-08-01T06:26:39;5.75;;;3.58;;
49241;SDS011;35079;52.704;13.814;2023-08-01T06:29:04;5.80;;;3.30;;
49241;SDS011;35079;52.704;13.814;2023-08-01T06:31:30;5.28;;;3.33;;
49241;SDS011;35079;52.704;13.814;2023-08-01T06:33:55;5.63;;;3.50;;
49241;SDS011;35079;52.704;13.814;2023-08-01T06:36:22;6.47;;;3.72;;
49241;SDS011;35079;52.704;13.814;2023-08-01T06:38:47;4.60;;;3.05;;
49241;SDS011;35079;52.704;13.814;2023-08-01T06:41:13;5.50;;;3.50;;
49241;SDS011;35079;52.704;13.814;2023-08-01T06:43:39;6.32;;;3.53;;
49241;SDS011;35079;52.704;13.814;2023-08-01T06:46:04;8.02;;;3.45;;
49241;SDS011;35079;52.704;13.814;2023-08-01T06:48:31;5.65;;;3.17;;
49241;SDS011;35079;52.704;13.814;2023-08-01T06:50:59;6.60;;;3.45;;
49241;SDS011;35079;52.704;13.814;2023-08-01T06:53:26;6.60;;;3.28;;
49241;SDS011;35079;52.704;13.814;2023-08-01T06:55:52;7.13;;;2.50;;
49241;SDS011;35079;52.704;13.814;2023-08-01T06:58:20;5.00;;;3.13;;
49241;SDS011;35079;52.704;13.814;2023-08-01T07:00:46;5.10;;;3.47;;
49241;SDS011;35079;52.704;13.814;2023-08-01T07:03:12;5.45;;;3.50;;
49241;SDS011;35079;52.704;13.814;2023-08-01T07:05:37;4.90;;;3.40;;
49241;SDS011;35079;52.704;13.814;2023-08-01T07:08:03;7.65;;;3.53;;
49241;SDS011;35079;52.704;13.814;2023-08-01T07:10:29;6.18;;;3.17;;
49241;SDS011;35079;52.704;13.814;2023-08-01T07:12:55;6.38;;;3.03;;
49241;SDS011;35079;52.704;13.814;2023-08-01T07:15:21;7.22;;;3.45;;
49241;SDS011;35079;52.704;13.814;2023-08-01T07:17:47;6.70;;;3.50;;
49241;SDS011;35079;52.704;13.814;2023-08-01T07:20:13;4.38;;;3.13;;
49241;SDS011;35079;52.704;13.814;2023-08-01T07:22:39;7.80;;;3.42;;
49241;SDS011;35079;52.704;13.814;2023-08-01T07:25:05;6.15;;;3.17;;
49241;SDS011;35079;52.704;13.814;2023-08-01T07:27:31;5.90;;;3.00;;
49241;SDS011;35079;52.704;13.814;2023-08-01T07:30:00;4.05;;;2.92;;
49241;SDS011;35079;52.704;13.814;2023-08-01T07:32:25;3.75;;;2.97;;
49241;SDS011;35079;52.704;13.814;2023-08-01T07:34:51;3.50;;;2.80;;
49241;SDS011;35079;52.704;13.814;2023-08-01T07:37:17;5.68;;;3.28;;
49241;SDS011;35079;52.704;13.814;2023-08-01T07:39:45;4.45;;;3.10;;
49241;SDS011;35079;52.704;13.814;2023-08-01T07:42:10;3.15;;;2.75;;
49241;SDS011;35079;52.704;13.814;2023-08-01T07:44:36;3.75;;;2.72;;
49241;SDS011;35079;52.704;13.814;2023-08-01T07:47:02;4.50;;;2.65;;
49241;SDS011;35079;52.704;13.814;2023-08-01T07:49:28;3.88;;;2.72;;
49241;SDS011;35079;52.704;13.814;2023-08-01T07:51:53;5.25;;;2.83;;
49241;SDS011;35079;52.704;13.814;2023-08-01T07:54:19;3.47;;;2.38;;
49241;SDS011;35079;52.704;13.814;2023-08-01T07:56:45;4.63;;;2.70;;
49241;SDS011;35079;52.704;13.814;2023-08-01T07:59:13;3.95;;;2.67;;
49241;SDS011;35079;52.704;13.814;2023-08-01T08:01:39;4.65;;;2.40;;
49241;SDS011;35079;52.704;13.814;2023-08-01T08:04:05;5.05;;;2.63;;
49241;SDS011;35079;52.704;13.814;2023-08-01T08:06:31;4.05;;;2.30;;
49241;SDS011;35079;52.704;13.814;2023-08-01T08:08:56;2.92;;;2.63;;
49241;SDS011;35079;52.704;13.814;2023-08-01T08:11:22;4.28;;;2.38;;
49241;SDS011;35079;52.704;13.814;2023-08-01T08:13:48;4.53;;;2.60;;
49241;SDS011;35079;52.704;13.814;2023-08-01T08:16:14;3.78;;;2.20;;
49241;SDS011;35079;52.704;13.814;2023-08-01T08:18:39;2.90;;;2.15;;
49241;SDS011;35079;52.704;13.814;2023-08-01T08:21:05;3.33;;;2.22;;
49241;SDS011;35079;52.704;13.814;2023-08-01T08:23:30;3.78;;;2.33;;
49241;SDS011;35079;52.704;13.814;2023-08-01T08:25:56;6.15;;;2.60;;
49241;SDS011;35079;52.704;13.814;2023-08-01T08:28:28;5.45;;;2.78;;
49241;SDS011;35079;52.704;13.814;2023-08-01T08:30:55;4.27;;;2.60;;
49241;SDS011;35079;52.704;13.814;2023-08-01T08:33:21;3.30;;;2.33;;
49241;SDS011;35079;52.704;13.814;2023-08-01T08:35:47;4.90;;;2.40;;
49241;SDS011;35079;52.704;13.814;2023-08-01T08:38:13;2.88;;;2.25;;
49241;SDS011;35079;52.704;13.814;2023-08-01T08:40:40;2.95;;;2.50;;
49241;SDS011;35079;52.704;13.814;2023-08-01T08:43:08;7.00;;;1.98;;
49241;SDS011;35079;52.704;13.814;2023-08-01T08:45:35;3.58;;;2.70;;
49241;SDS011;35079;52.704;13.814;2023-08-01T08:48:07;4.72;;;2.20;;
49241;SDS011;35079;52.704;13.814;2023-08-01T08:50:36;2.67;;;2.38;;
49241;SDS011;35079;52.704;13.814;2023-08-01T08:53:02;3.10;;;2.05;;
49241;SDS011;35079;52.704;13.814;2023-08-01T08:55:29;2.92;;;2.35;;
49241;SDS011;35079;52.704;13.814;2023-08-01T08:57:56;6.72;;;2.53;;
49241;SDS011;35079;52.704;13.814;2023-08-01T09:00:24;4.65;;;2.50;;
49241;SDS011;35079;52.704;13.814;2023-08-01T09:02:52;2.88;;;2.22;;
49241;SDS011;35079;52.704;13.814;2023-08-01T09:05:18;3.83;;;2.50;;
49241;SDS011;35079;52.704;13.814;2023-08-01T09:07:45;4.55;;;2.20;;
49241;SDS011;35079;52.704;13.814;2023-08-01T09:10:14;3.75;;;2.03;;
49241;SDS011;35079;52.704;13.814;2023-08-01T09:12:39;3.95;;;2.28;;
49241;SDS011;35079;52.704;13.814;2023-08-01T09:15:05;2.83;;;2.40;;
49241;SDS011;35079;52.704;13.814;2023-08-01T09:17:32;4.70;;;1.98;;
49241;SDS011;35079;52.704;13.814;2023-08-01T09:20:04;3.67;;;2.17;;
49241;SDS011;35079;52.704;13.814;2023-08-01T09:22:43;3.13;;;1.95;;
49241;SDS011;35079;52.704;13.814;2023-08-01T09:25:10;2.67;;;2.20;;
49241;SDS011;35079;52.704;13.814;2023-08-01T09:27:36;3.10;;;1.88;;
49241;SDS011;35079;52.704;13.814;2023-08-01T09:30:08;2.92;;;1.95;;
49241;SDS011;35079;52.704;13.814;2023-08-01T09:32:35;3.08;;;1.85;;
49241;SDS011;35079;52.704;13.814;2023-08-01T09:35:00;2.00;;;1.80;;
49241;SDS011;35079;52.704;13.814;2023-08-01T09:37:26;2.25;;;2.05;;
49241;SDS011;35079;52.704;13.814;2023-08-01T09:39:55;4.38;;;2.30;;
49241;SDS011;35079;52.704;13.814;2023-08-01T09:42:21;4.63;;;2.08;;
49241;SDS011;35079;52.704;13.814;2023-08-01T09:44:46;3.40;;;2.10;;
49241;SDS011;35079;52.704;13.814;2023-08-01T09:47:12;5.68;;;1.95;;
49241;SDS011;35079;52.704;13.814;2023-08-01T09:49:46;3.25;;;2.20;;
49241;SDS011;35079;52.704;13.814;2023-08-01T09:52:13;2.40;;;1.98;;
49241;SDS011;35079;52.704;13.814;2023-08-01T09:54:39;2.75;;;1.88;;
49241;SDS011;35079;52.704;13.814;2023-08-01T09:57:05;1.83;;;1.60;;
49241;SDS011;35079;52.704;13.814;2023-08-01T09:59:32;3.17;;;1.80;;
49241;SDS011;35079;52.704;13.814;2023-08-01T10:02:00;4.10;;;1.60;;
49241;SDS011;35079;52.704;13.814;2023-08-01T10:04:27;4.03;;;1.60;;
49241;SDS011;35079;52.704;13.814;2023-08-01T10:06:58;1.60;;;1.50;;
49241;SDS011;35079;52.704;13.814;2023-08-01T10:09:25;3.28;;;1.50;;
49241;SDS011;35079;52.704;13.814;2023-08-01T10:11:51;1.98;;;1.52;;
49241;SDS011;35079;52.704;13.814;2023-08-01T10:14:21;3.03;;;1.33;;
49241;SDS011;35079;52.704;13.814;2023-08-01T10:16:47;2.35;;;1.10;;
49241;SDS011;35079;52.704;13.814;2023-08-01T10:19:13;4.32;;;1.25;;
49241;SDS011;35079;52.704;13.814;2023-08-01T10:21:40;2.22;;;1.40;;
49241;SDS011;35079;52.704;13.814;2023-08-01T10:24:07;3.22;;;1.27;;
49241;SDS011;35079;52.704;13.814;2023-08-01T10:26:34;4.88;;;1.13;;
49241;SDS011;35079;52.704;13.814;2023-08-01T10:29:00;3.03;;;1.20;;
49241;SDS011;35079;52.704;13.814;2023-08-01T10:31:27;1.20;;;1.10;;
49241;SDS011;35079;52.704;13.814;2023-08-01T10:34:02;3.17;;;1.00;;
49241;SDS011;35079;52.704;13.814;2023-08-01T10:36:32;2.30;;;1.10;;
49241;SDS011;35079;52.704;13.814;2023-08-01T10:38:59;3.88;;;1.15;;
49241;SDS011;35079;52.704;13.814;2023-08-01T10:44:03;5.78;;;0.90;;
49241;SDS011;35079;52.704;13.814;2023-08-01T10:46:46;2.33;;;1.05;;
49241;SDS011;35079;52.704;13.814;2023-08-01T10:49:15;1.80;;;0.90;;
49241;SDS011;35079;52.704;13.814;2023-08-01T10:51:42;2.13;;;1.15;;
49241;SDS011;35079;52.704;13.814;2023-08-01T10:54:24;1.75;;;1.00;;
49241;SDS011;35079;52.704;13.814;2023-08-01T10:56:51;1.38;;;1.00;;
49241;SDS011;35079;52.704;13.814;2023-08-01T10:59:19;2.33;;;1.02;;
49241;SDS011;35079;52.704;13.814;2023-08-01T11:01:47;1.15;;;0.77;;
49241;SDS011;35079;52.704;13.814;2023-08-01T11:04:15;0.85;;;0.85;;
49241;SDS011;35079;52.704;13.814;2023-08-01T11:06:47;2.90;;;0.73;;
49241;SDS011;35079;52.704;13.814;2023-08-01T11:11:48;1.77;;;0.77;;
49241;SDS011;35079;52.704;13.814;2023-08-01T11:14:19;0.77;;;0.60;;
49241;SDS011;35079;52.704;13.814;2023-08-01T11:16:47;2.38;;;0.93;;
49241;SDS011;35079;52.704;13.814;2023-08-01T11:19:18;7.30;;;1.02;;
49241;SDS011;35079;52.704;13.814;2023-08-01T11:21:50;3.75;;;1.10;;
49241;SDS011;35079;52.704;13.814;2023-08-01T11:24:17;7.70;;;1.15;;
49241;SDS011;35079;52.704;13.814;2023-08-01T11:26:45;2.50;;;1.20;;
49241;SDS011;35079;52.704;13.814;2023-08-01T11:29:13;5.80;;;1.10;;
49241;SDS011;35079;52.704;13.814;2023-08-01T11:31:40;1.25;;;1.15;;
49241;SDS011;35079;52.704;13.814;2023-08-01T11:34:07;4.82;;;1.33;;
49241;SDS011;35079;52.704;13.814;2023-08-01T11:36:35;1.55;;;1.17;;
49241;SDS011;35079;52.704;13.814;2023-08-01T11:39:01;2.58;;;1.00;;
49241;SDS011;35079;52.704;13.814;2023-08-01T11:41:27;1.33;;;1.00;;
49241;SDS011;35079;52.704;13.814;2023-08-01T11:43:53;4.05;;;0.95;;
49241;SDS011;35079;52.704;13.814;2023-08-01T11:46:22;3.30;;;1.10;;
49241;SDS011;35079;52.704;13.814;2023-08-01T11:48:55;1.95;;;1.13;;
49241;SDS011;35079;52.704;13.814;2023-08-01T11:51:21;3.08;;;1.20;;
49241;SDS011;35079;52.704;13.814;2023-08-01T11:53:46;1.98;;;1.20;;
49241;SDS011;35079;52.704;13.814;2023-08-01T11:56:22;1.63;;;1.45;;
49241;SDS011;35079;52.704;13.814;2023-08-01T11:58:48;4.35;;;1.52;;
49241;SDS011;35079;52.704;13.814;2023-08-01T12:01:14;1.98;;;1.77;;
49241;SDS011;35079;52.704;13.814;2023-08-01T12:03:50;3.65;;;2.00;;
49241;SDS011;35079;52.704;13.814;2023-08-01T12:06:20;2.30;;;2.03;;
49241;SDS011;35079;52.704;13.814;2023-08-01T12:08:47;3.38;;;2.13;;
49241;SDS011;35079;52.704;13.814;2023-08-01T12:11:23;4.10;;;2.40;;
49241;SDS011;35079;52.704;13.814;2023-08-01T12:14:04;3.67;;;2.45;;
49241;SDS011;35079;52.704;13.814;2023-08-01T12:16:40;4.70;;;2.70;;
49241;SDS011;35079;52.704;13.814;2023-08-01T12:19:10;6.20;;;2.95;;
49241;SDS011;35079;52.704;13.814;2023-08-01T12:21:36;3.67;;;3.35;;
49241;SDS011;35079;52.704;13.814;2023-08-01T12:24:02;5.55;;;3.13;;
49241;SDS011;35079;52.704;13.814;2023-08-01T12:26:28;4.45;;;3.42;;
49241;SDS011;35079;52.704;13.814;2023-08-01T12:28:54;5.45;;;3.35;;
49241;SDS011;35079;52.704;13.814;2023-08-01T12:31:21;4.82;;;2.95;;
49241;SDS011;35079;52.704;13.814;2023-08-01T12:33:47;3.58;;;3.25;;
49241;SDS011;35079;52.704;13.814;2023-08-01T12:36:13;6.88;;;3.78;;
49241;SDS011;35079;52.704;13.814;2023-08-01T12:38:39;4.70;;;3.53;;
49241;SDS011;35079;52.704;13.814;2023-08-01T12:41:05;5.38;;;3.90;;
49241;SDS011;35079;52.704;13.814;2023-08-01T12:43:31;5.40;;;4.53;;
49241;SDS011;35079;52.704;13.814;2023-08-01T12:45:57;5.03;;;4.30;;
49241;SDS011;35079;52.704;13.814;2023-08-01T12:48:24;5.15;;;3.92;;
49241;SDS011;35079;52.704;13.814;2023-08-01T12:50:50;4.60;;;3.33;;
49241;SDS011;35079;52.704;13.814;2023-08-01T12:53:16;7.65;;;3.47;;
49241;SDS011;35079;52.704;13.814;2023-08-01T12:55:45;6.30;;;2.92;;
49241;SDS011;35079;52.704;13.814;2023-08-01T12:58:12;5.93;;;3.40;;
49241;SDS011;35079;52.704;13.814;2023-08-01T13:00:38;3.53;;;2.65;;
49241;SDS011;35079;52.704;13.814;2023-08-01T13:03:05;3.97;;;3.15;;
49241;SDS011;35079;52.704;13.814;2023-08-01T13:05:36;6.80;;;3.92;;
49241;SDS011;35079;52.704;13.814;2023-08-01T13:08:03;4.07;;;3.13;;
49241;SDS011;35079;52.704;13.814;2023-08-01T13:10:32;4.80;;;3.13;;
49241;SDS011;35079;52.704;13.814;2023-08-01T13:13:01;4.10;;;3.30;;
49241;SDS011;35079;52.704;13.814;2023-08-01T13:15:28;5.30;;;2.90;;
49241;SDS011;35079;52.704;13.814;2023-08-01T13:17:54;7.70;;;3.28;;
49241;SDS011;35079;52.704;13.814;2023-08-01T13:20:20;6.88;;;3.10;;
49241;SDS011;35079;52.704;13.814;2023-08-01T13:22:46;4.68;;;2.90;;
49241;SDS011;35079;52.704;13.814;2023-08-01T13:25:15;5.72;;;3.55;;
49241;SDS011;35079;52.704;13.814;2023-08-01T13:27:41;5.53;;;2.85;;
49241;SDS011;35079;52.704;13.814;2023-08-01T13:30:07;5.00;;;2.97;;
49241;SDS011;35079;52.704;13.814;2023-08-01T13:32:34;8.25;;;3.50;;
49241;SDS011;35079;52.704;13.814;2023-08-01T13:35:00;5.20;;;3.40;;
49241;SDS011;35079;52.704;13.814;2023-08-01T13:37:26;5.78;;;3.13;;
49241;SDS011;35079;52.704;13.814;2023-08-01T13:39:53;4.90;;;2.70;;
49241;SDS011;35079;52.704;13.814;2023-08-01T13:42:18;4.55;;;2.53;;
49241;SDS011;35079;52.704;13.814;2023-08-01T13:44:44;5.13;;;3.30;;
49241;SDS011;35079;52.704;13.814;2023-08-01T13:47:10;4.47;;;2.70;;
49241;SDS011;35079;52.704;13.814;2023-08-01T13:49:35;7.57;;;2.95;;
49241;SDS011;35079;52.704;13.814;2023-08-01T13:52:01;4.80;;;2.97;;
49241;SDS011;35079;52.704;13.814;2023-08-01T13:54:28;7.13;;;2.70;;
49241;SDS011;35079;52.704;13.814;2023-08-01T13:56:53;4.88;;;2.85;;
49241;SDS011;35079;52.704;13.814;2023-08-01T13:59:20;2.80;;;2.58;;
49241;SDS011;35079;52.704;13.814;2023-08-01T14:01:46;4.32;;;2.92;;
49241;SDS011;35079;52.704;13.814;2023-08-01T14:04:11;3.83;;;2.90;;
49241;SDS011;35079;52.704;13.814;2023-08-01T14:06:40;6.05;;;2.90;;
49241;SDS011;35079;52.704;13.814;2023-08-01T14:09:07;7.43;;;3.08;;
49241;SDS011;35079;52.704;13.814;2023-08-01T14:11:36;4.15;;;2.88;;
49241;SDS011;35079;52.704;13.814;2023-08-01T14:14:02;5.95;;;2.50;;
49241;SDS011;35079;52.704;13.814;2023-08-01T14:16:28;4.88;;;2.90;;
49241;SDS011;35079;52.704;13.814;2023-08-01T14:18:54;5.38;;;2.55;;
49241;SDS011;35079;52.704;13.814;2023-08-01T14:21:20;4.68;;;2.85;;
49241;SDS011;35079;52.704;13.814;2023-08-01T14:23:46;4.70;;;2.90;;
49241;SDS011;35079;52.704;13.814;2023-08-01T14:26:12;3.80;;;2.80;;
49241;SDS011;35079;52.704;13.814;2023-08-01T14:28:38;4.53;;;2.50;;
49241;SDS011;35079;52.704;13.814;2023-08-01T14:31:04;5.03;;;3.00;;
49241;SDS011;35079;52.704;13.814;2023-08-01T14:33:30;3.83;;;2.72;;
49241;SDS011;35079;52.704;13.814;2023-08-01T14:35:55;5.75;;;3.00;;
49241;SDS011;35079;52.704;13.814;2023-08-01T14:38:21;4.05;;;2.80;;
49241;SDS011;35079;52.704;13.814;2023-08-01T14:40:47;4.35;;;2.70;;